Roxbury, Kansas
Current Conditions -  °F | °C
As of 9:53 PM on Thursday 27 Nov 2014 (Local Time) from KSLN Reporting Station
Clear Clear  
Wind Chill: 29°   Ceiling: Unl
Heat Index: 37°   Visibility: 10mi
Dew Point: 19°   Wind: 12mph
Humidity: 48%   Direction: 150°SSE
Pressure: 30.13"   Gusts: NA
Location:  38.55°N, 97.43°W
Report Text: KSLN 280353Z 15010KT 10SM CLR 03/M07 A3013 RMK AO2 SLP215 T00281072
Loading
Personal Weather Stations






























Interactive Weather Map New forecast layout! Learn more

10-Day Weather Forecast

Advertisements
Track Severe Weather on mobile